createdAt,value
2019-05-06T04:02:05.147Z,4.361877
2019-05-06T04:05:34.807Z,4.341736
2019-05-06T04:09:04.896Z,4.351807
2019-05-06T04:12:35.104Z,4.27124
2019-05-06T04:16:05.392Z,4.311523
2019-05-06T04:19:35.519Z,4.301453
2019-05-06T04:23:06.381Z,4.301453
2019-05-06T04:26:36.742Z,4.311523
2019-05-06T04:30:07.810Z,4.281311
2019-05-06T04:33:36.831Z,4.311523
2019-05-06T04:37:06.902Z,4.351807
2019-05-06T04:40:37.991Z,4.452515
2019-05-06T04:44:09.221Z,4.422302
2019-05-06T04:47:43.371Z,4.482727
2019-05-06T04:52:38.706Z,4.64386
2019-05-06T04:56:14.296Z,4.784851
2019-05-06T04:59:44.423Z,4.956055
2019-05-06T05:03:15.466Z,5.086975
2019-05-06T05:06:45.581Z,5.238037
2019-05-06T05:10:15.607Z,5.318604
2019-05-06T05:13:45.634Z,5.389099
2019-05-06T05:17:15.720Z,5.499878
2019-05-06T05:20:46.816Z,5.439453
2019-05-06T05:24:16.948Z,5.389099
2019-05-06T05:27:47.000Z,5.368958
2019-05-06T05:31:16.986Z,5.338745
2019-05-06T05:34:48.002Z,5.429382
2019-05-06T05:38:19.071Z,5.509949
2019-05-06T05:41:51.931Z,5.590515
2019-05-06T05:45:22.138Z,5.671082
2019-05-06T05:48:49.325Z,5.822144
2019-05-06T05:52:22.229Z,5.983276
2019-05-06T05:55:52.699Z,6.214905
2019-05-06T05:59:23.113Z,6.456604
2019-05-06T06:02:53.056Z,6.627808
2019-05-06T06:06:22.685Z,6.627808
2019-05-06T06:09:52.783Z,6.607666
2019-05-06T06:13:23.867Z,6.77887
2019-05-06T06:16:53.945Z,6.889648
2019-05-06T06:20:23.954Z,6.90979
2019-05-06T06:23:54.043Z,6.970215
2019-05-06T06:27:24.142Z,7.04071
2019-05-06T06:30:55.217Z,7.131348
2019-05-06T06:34:25.290Z,7.29248
2019-05-06T06:37:55.308Z,7.624817
2019-05-06T06:41:25.347Z,7.755737
2019-05-06T06:44:55.438Z,7.775879
2019-05-06T06:48:27.861Z,7.91687
2019-05-06T06:51:57.600Z,7.866516
2019-05-06T06:55:28.601Z,7.806091
2019-05-06T06:58:59.650Z,7.937012
2019-05-06T07:02:32.729Z,8.03772
2019-05-06T07:06:02.259Z,8.16864
2019-05-06T07:09:32.327Z,8.349915
2019-05-06T07:13:02.842Z,8.339844
2019-05-06T07:16:32.752Z,8.460693
2019-05-06T07:20:02.843Z,8.490906
2019-05-06T07:23:32.732Z,8.521118
2019-05-06T07:27:02.981Z,8.410339
2019-05-06T07:30:32.490Z,8.470764
2019-05-06T07:34:02.666Z,8.631897
2019-05-06T07:37:32.781Z,8.652039
2019-05-06T07:41:04.494Z,8.813171
2019-05-06T07:44:34.774Z,8.954163
2019-05-06T07:48:04.845Z,9.014587
2019-05-06T07:51:34.855Z,9.064941
2019-05-06T07:55:05.033Z,9.336853
2019-05-06T07:58:34.100Z,9.649048
2019-05-06T08:02:05.098Z,9.618835
2019-05-06T08:05:35.143Z,9.336853
2019-05-06T08:09:09.216Z,9.155579
2019-05-06T08:12:42.811Z,9.0448
2019-05-06T08:16:13.052Z,9.085083
2019-05-06T08:19:42.385Z,9.216003
2019-05-06T08:23:12.665Z,9.336853
2019-05-06T08:26:42.885Z,9.467773
2019-05-06T08:30:13.068Z,9.568481
2019-05-06T08:33:43.126Z,9.669189
2019-05-06T08:37:12.032Z,9.628906
2019-05-06T08:40:43.012Z,9.649048
2019-05-06T08:44:12.997Z,9.628906
2019-05-06T08:47:43.073Z,9.749756
2019-05-06T08:51:13.146Z,9.991455
2019-05-06T08:54:43.219Z,10.082092
2019-05-06T08:58:13.923Z,10.263367
2019-05-06T09:01:43.421Z,10.092163
2019-05-06T09:05:13.420Z,9.870605
2019-05-06T09:08:43.541Z,9.981384
2019-05-06T09:12:13.597Z,10.313721
2019-05-06T09:15:44.148Z,10.43457
2019-05-06T09:19:15.238Z,10.646057
2019-05-06T09:22:45.303Z,10.897827
2019-05-06T09:26:15.329Z,10.817261
2019-05-06T09:29:45.370Z,10.867615
2019-05-06T09:33:14.395Z,10.494995
2019-05-06T09:36:51.606Z,10.364075
2019-05-06T09:40:19.523Z,10.93811
2019-05-06T09:43:52.639Z,10.867615
2019-05-06T09:47:22.924Z,10.67627
2019-05-06T09:50:53.511Z,10.897827
2019-05-06T09:54:23.796Z,11.371155
2019-05-06T09:57:53.810Z,10.726624
2019-05-06T10:01:23.890Z,10.646057
2019-05-06T10:04:54.034Z,11.31073
2019-05-06T10:08:24.128Z,11.703491
2019-05-06T10:11:54.171Z,11.763916
2019-05-06T10:15:24.251Z,11.703491
2019-05-06T10:18:54.297Z,12.096252
2019-05-06T10:22:24.322Z,12.126465
2019-05-06T10:25:54.419Z,12.398376
2019-05-06T10:29:22.418Z,12.831421
2019-05-06T10:32:52.928Z,12.730713
2019-05-06T10:36:22.559Z,12.176819
2019-05-06T10:39:53.702Z,12.025757
2019-05-06T10:43:23.778Z,11.69342
2019-05-06T10:46:52.618Z,11.592712
2019-05-06T10:50:23.002Z,12.398376
2019-05-06T10:53:52.880Z,13.898926
2019-05-06T10:57:23.950Z,12.650146
2019-05-06T11:00:54.070Z,13.052979
2019-05-06T11:04:24.139Z,13.818359
2019-05-06T11:07:54.195Z,12.650146
2019-05-06T11:11:32.419Z,12.176819
2019-05-06T11:15:03.210Z,11.794128
2019-05-06T11:18:33.619Z,11.542358
2019-05-06T11:22:03.738Z,11.43158
2019-05-06T11:25:32.256Z,11.17981
2019-05-06T11:29:05.259Z,10.978394
2019-05-06T11:32:37.459Z,11.330872
2019-05-06T11:36:12.181Z,11.925049
2019-05-06T11:39:43.575Z,12.468872
2019-05-06T11:43:12.007Z,12.881775
2019-05-06T11:46:42.904Z,13.113403
2019-05-06T11:50:13.093Z,13.294678
2019-05-06T11:53:42.881Z,13.999634
2019-05-06T11:57:12.899Z,14.0802
2019-05-06T12:00:44.139Z,13.727722
2019-05-06T12:04:14.099Z,13.163757
2019-05-06T12:07:59.958Z,13.506165
2019-05-06T12:11:18.919Z,13.355103
2019-05-06T12:14:52.652Z,12.630005
2019-05-06T12:18:23.716Z,12.136536
2019-05-06T12:21:52.939Z,12.045898
2019-05-06T12:25:23.657Z,12.277527
2019-05-06T12:28:54.733Z,12.770996
2019-05-06T12:32:24.711Z,12.468872
2019-05-06T12:35:54.781Z,12.43866
2019-05-06T12:39:23.849Z,12.660217
2019-05-06T12:42:53.915Z,12.458801
2019-05-06T12:46:23.979Z,12.166748
2019-05-06T12:49:55.102Z,12.126465
2019-05-06T12:53:25.991Z,12.297668
2019-05-06T12:56:57.216Z,12.69043
2019-05-06T13:00:28.297Z,12.962341
2019-05-06T13:03:58.270Z,12.760925
2019-05-06T13:07:29.548Z,12.962341
2019-05-06T13:11:02.677Z,13.264465
2019-05-06T13:14:33.069Z,13.44574
2019-05-06T13:18:06.940Z,13.637085
2019-05-06T13:21:35.407Z,13.627014
2019-05-06T13:25:05.485Z,13.727722
2019-05-06T13:28:38.059Z,13.858643
2019-05-06T13:32:09.120Z,13.939209
2019-05-06T13:35:38.180Z,13.969421
2019-05-06T13:39:14.236Z,13.707581
2019-05-06T13:42:43.257Z,13.788147
2019-05-06T13:46:13.298Z,13.848572
2019-05-06T13:49:43.386Z,14.150696
2019-05-06T13:53:14.091Z,13.717651
2019-05-06T13:56:48.882Z,13.647156
2019-05-06T14:00:18.485Z,13.506165
2019-05-06T14:03:49.527Z,13.667297
2019-05-06T14:07:20.558Z,13.395386
2019-05-06T14:10:59.286Z,12.791138
2019-05-06T14:14:27.539Z,12.831421
2019-05-06T14:17:58.638Z,12.952271
2019-05-06T14:21:29.610Z,12.69043
2019-05-06T14:25:01.570Z,12.932129
2019-05-06T14:28:33.332Z,12.992554
2019-05-06T14:31:37.898Z,12.760925
2019-05-06T14:35:08.934Z,12.841492
2019-05-06T14:38:42.677Z,12.952271
2019-05-06T14:42:13.276Z,13.063049
2019-05-06T14:45:43.346Z,13.415527
2019-05-06T14:49:11.415Z,13.274536
2019-05-06T14:52:42.602Z,13.012695
2019-05-06T14:56:12.978Z,12.730713
2019-05-06T14:59:42.390Z,13.052979
2019-05-06T15:03:12.902Z,13.455811
2019-05-06T15:06:42.724Z,13.143616
2019-05-06T15:10:19.943Z,13.19397
2019-05-06T15:13:47.354Z,13.32489
2019-05-06T15:17:18.303Z,13.244324
2019-05-06T15:20:49.306Z,13.234253
2019-05-06T15:24:21.774Z,13.304749
2019-05-06T15:27:50.231Z,13.19397
2019-05-06T15:31:22.875Z,13.052979
2019-05-06T15:34:56.025Z,13.304749
2019-05-06T15:38:24.742Z,13.244324
2019-05-06T15:41:55.962Z,13.536377
2019-05-06T15:46:48.149Z,13.929138
2019-05-06T15:50:19.142Z,13.294678
2019-05-06T15:53:50.091Z,13.052979
2019-05-06T15:57:22.842Z,12.589722
2019-05-06T16:00:53.093Z,12.43866
2019-05-06T16:04:22.870Z,12.680359
2019-05-06T16:07:52.808Z,12.499084
2019-05-06T16:11:22.336Z,12.207031
2019-05-06T16:14:53.022Z,12.247314
2019-05-06T16:18:23.501Z,12.358093
2019-05-06T16:21:53.066Z,12.136536
2019-05-06T16:25:23.079Z,12.650146
2019-05-06T16:28:53.271Z,12.227173
2019-05-06T16:32:23.353Z,12.106323
2019-05-06T16:35:54.593Z,12.146606
2019-05-06T16:39:24.820Z,11.763916
2019-05-06T16:42:57.553Z,11.673279
2019-05-06T16:46:28.678Z,12.106323
2019-05-06T16:50:00.659Z,11.481934
2019-05-06T16:53:39.961Z,11.713562
2019-05-06T16:57:23.165Z,11.844482
2019-05-06T17:00:54.703Z,12.509155
2019-05-06T17:04:28.118Z,11.643066
2019-05-06T17:08:04.196Z,12.458801
2019-05-06T17:11:42.608Z,12.458801
2019-05-06T17:15:15.213Z,12.630005
2019-05-06T17:18:46.410Z,12.217102
2019-05-06T17:22:18.209Z,12.096252
2019-05-06T17:25:52.578Z,11.884766
2019-05-06T17:29:24.039Z,11.582642
2019-05-06T17:32:56.649Z,11.461792
2019-05-06T17:36:32.989Z,11.361084
2019-05-06T17:40:14.357Z,11.230164
2019-05-06T17:43:45.064Z,11.089172
2019-05-06T17:47:15.837Z,10.857544
2019-05-06T17:50:46.203Z,10.696411
2019-05-06T17:54:19.158Z,10.605774
2019-05-06T17:57:52.894Z,10.565491
2019-05-06T18:01:24.561Z,10.43457
2019-05-06T18:04:54.947Z,10.364075
2019-05-06T18:08:27.879Z,10.273438
2019-05-06T18:11:59.653Z,10.162659
2019-05-06T18:15:31.622Z,10.031738
2019-05-06T18:19:04.501Z,9.991455
2019-05-06T18:22:41.593Z,9.830322
2019-05-06T18:26:14.758Z,9.699402
2019-05-06T18:29:53.660Z,9.699402
2019-05-06T18:33:35.538Z,9.568481
2019-05-06T18:37:12.803Z,9.508057
2019-05-06T18:40:48.365Z,9.407349
2019-05-06T18:44:25.959Z,9.29657
2019-05-06T18:48:02.899Z,9.17572
2019-05-06T18:51:37.316Z,9.014587
2019-05-06T18:55:15.693Z,8.954163
2019-05-06T18:58:48.634Z,8.934021
2019-05-06T19:02:26.669Z,8.883667
2019-05-06T19:06:02.103Z,8.883667
2019-05-06T19:09:33.066Z,8.883667
2019-05-06T19:13:04.620Z,8.752747
2019-05-06T19:16:48.548Z,8.67218
2019-05-06T19:20:10.756Z,8.571472
2019-05-06T19:23:42.739Z,8.551331
2019-05-06T19:27:12.710Z,8.500977
2019-05-06T19:30:40.281Z,8.410339
2019-05-06T19:34:12.656Z,8.279419
2019-05-06T19:37:41.613Z,8.188782
2019-05-06T19:41:12.802Z,8.158569
2019-05-06T19:44:45.408Z,8.047791
2019-05-06T19:48:13.334Z,8.017578
2019-05-06T19:51:43.168Z,7.876587
2019-05-06T19:55:13.309Z,7.836304
2019-05-06T19:58:43.789Z,7.836304
2019-05-06T20:02:23.251Z,7.806091
2019-05-06T20:05:55.750Z,7.705383
2019-05-06T20:09:25.838Z,7.503967
2019-05-06T20:13:02.507Z,7.443542
2019-05-06T20:16:32.292Z,7.393188
2019-05-06T20:20:02.934Z,7.312622
2019-05-06T20:23:33.063Z,7.29248
2019-05-06T20:27:02.326Z,7.252197
2019-05-06T20:30:32.716Z,7.181702
2019-05-06T20:34:02.593Z,7.16156
2019-05-06T20:37:33.722Z,7.111206
2019-05-06T20:41:05.493Z,7.111206
2019-05-06T20:44:35.397Z,7.010498
2019-05-06T20:48:06.662Z,7.010498
2019-05-06T20:51:38.499Z,7.010498
2019-05-06T20:55:15.843Z,6.970215
2019-05-06T20:58:43.848Z,6.90979
2019-05-06T21:02:15.198Z,6.879578
2019-05-06T21:05:45.361Z,6.809082
2019-05-06T21:09:17.428Z,6.829224
2019-05-06T21:12:48.516Z,6.77887
2019-05-06T21:16:19.598Z,6.809082
